createdAt,value
2019-05-09T00:01:15.453Z,8.50
2019-05-09T00:03:45.161Z,7.77
2019-05-09T00:06:15.202Z,8.93
2019-05-09T00:08:45.098Z,8.80
2019-05-09T00:11:15.005Z,8.10
2019-05-09T00:13:45.226Z,9.10
2019-05-09T00:16:15.251Z,8.77
2019-05-09T00:18:45.269Z,8.93
2019-05-09T00:21:23.782Z,9.43
2019-05-09T00:23:54.131Z,9.20
2019-05-09T00:26:24.220Z,8.23
2019-05-09T00:28:58.130Z,8.67
2019-05-09T00:31:47.003Z,9.53
2019-05-09T00:34:24.591Z,9.20
2019-05-09T00:36:55.422Z,9.93
2019-05-09T00:39:25.161Z,9.90
2019-05-09T00:41:55.248Z,9.77
2019-05-09T00:44:28.452Z,9.37
2019-05-09T00:47:08.493Z,9.60
2019-05-09T00:49:38.732Z,9.73
2019-05-09T00:52:08.750Z,9.50
2019-05-09T00:54:38.648Z,10.83
2019-05-09T00:57:10.292Z,11.07
2019-05-09T00:59:40.113Z,10.77
2019-05-09T01:02:10.222Z,10.53
2019-05-09T01:04:40.147Z,11.60
2019-05-09T01:07:10.593Z,11.37
2019-05-09T01:09:41.249Z,10.80
2019-05-09T01:12:11.650Z,11.07
2019-05-09T01:14:43.254Z,10.60
2019-05-09T01:17:13.832Z,10.83
2019-05-09T01:19:44.337Z,9.83
2019-05-09T01:22:14.562Z,11.00
2019-05-09T01:24:45.303Z,11.17
2019-05-09T01:27:23.841Z,11.67
2019-05-09T01:29:54.541Z,11.20
2019-05-09T01:32:34.605Z,11.50
2019-05-09T01:35:04.889Z,10.93
2019-05-09T01:37:34.521Z,11.00
2019-05-09T01:40:04.659Z,11.67
2019-05-09T01:42:34.448Z,11.03
2019-05-09T01:45:04.163Z,9.73
2019-05-09T01:47:34.231Z,10.97
2019-05-09T01:50:04.190Z,10.97
2019-05-09T01:52:34.204Z,10.20
2019-05-09T01:55:04.532Z,9.73
2019-05-09T01:57:34.344Z,9.73
2019-05-09T02:00:04.572Z,10.07
2019-05-09T02:02:34.270Z,8.93
2019-05-09T02:05:04.708Z,9.83
2019-05-09T02:07:34.630Z,9.27
2019-05-09T02:10:04.525Z,10.07
2019-05-09T02:12:34.553Z,10.60
2019-05-09T02:15:13.072Z,10.70
2019-05-09T02:17:58.859Z,9.37
2019-05-09T02:20:24.249Z,9.67
2019-05-09T02:22:55.193Z,9.07
2019-05-09T02:25:25.208Z,9.67
2019-05-09T02:27:55.341Z,9.13
2019-05-09T02:30:25.637Z,9.53
2019-05-09T02:32:55.879Z,9.20
2019-05-09T02:35:28.508Z,8.40
2019-05-09T02:37:58.674Z,8.57
2019-05-09T02:40:28.900Z,9.57
2019-05-09T02:42:59.114Z,8.90
2019-05-09T02:45:33.449Z,8.97
2019-05-09T02:48:03.567Z,9.40
2019-05-09T02:50:42.271Z,9.73
2019-05-09T02:53:12.295Z,9.33
2019-05-09T02:55:42.202Z,9.33
2019-05-09T02:58:13.658Z,9.87
2019-05-09T03:00:54.418Z,9.87
2019-05-09T03:03:29.064Z,8.87
2019-05-09T03:05:59.773Z,9.27
2019-05-09T03:08:29.864Z,8.87
2019-05-09T03:10:59.814Z,9.20
2019-05-09T03:13:30.571Z,9.20
2019-05-09T03:16:08.585Z,9.90
2019-05-09T03:18:38.969Z,8.77
2019-05-09T03:21:23.226Z,9.30
2019-05-09T03:23:53.362Z,9.33
2019-05-09T03:26:29.337Z,9.43
2019-05-09T03:29:19.195Z,8.40
2019-05-09T03:31:50.439Z,8.73
2019-05-09T03:34:20.449Z,8.20
2019-05-09T03:36:50.459Z,8.50
2019-05-09T03:39:20.272Z,8.40
2019-05-09T03:41:50.397Z,8.23
2019-05-09T03:44:20.524Z,8.87
2019-05-09T03:47:00.045Z,7.43
2019-05-09T03:49:30.293Z,8.47
2019-05-09T03:52:00.078Z,7.77
2019-05-09T03:54:29.700Z,8.37
2019-05-09T03:57:07.627Z,8.67
2019-05-09T03:59:38.117Z,8.30
2019-05-09T04:02:10.348Z,7.93
2019-05-09T04:04:40.712Z,7.60
2019-05-09T04:07:11.262Z,8.40
2019-05-09T04:09:42.485Z,8.27
2019-05-09T04:12:12.422Z,8.43
2019-05-09T04:14:42.210Z,8.77
2019-05-09T04:17:13.251Z,9.13
2019-05-09T04:19:43.370Z,9.40
2019-05-09T04:22:14.121Z,9.73
2019-05-09T04:24:47.401Z,10.50
2019-05-09T04:27:25.099Z,10.00
2019-05-09T04:29:59.749Z,9.90
2019-05-09T04:32:34.444Z,10.07
2019-05-09T04:35:05.622Z,9.97
2019-05-09T04:37:39.426Z,10.20
2019-05-09T04:40:09.202Z,10.17
2019-05-09T04:42:43.007Z,10.27
2019-05-09T04:45:19.480Z,10.57
2019-05-09T04:47:49.624Z,10.50
2019-05-09T04:50:24.884Z,11.13
2019-05-09T04:52:55.169Z,11.40
2019-05-09T04:55:27.381Z,10.73
2019-05-09T04:58:00.173Z,11.03
2019-05-09T05:00:49.501Z,11.73
2019-05-09T05:03:20.009Z,11.23
2019-05-09T05:05:49.815Z,11.00
2019-05-09T05:08:20.243Z,11.43
2019-05-09T05:10:50.468Z,11.30
2019-05-09T05:13:26.646Z,10.47
2019-05-09T05:15:54.292Z,11.23
2019-05-09T05:18:24.721Z,11.23
2019-05-09T05:20:59.784Z,10.73
2019-05-09T05:23:38.087Z,10.80
2019-05-09T05:26:09.497Z,9.83
2019-05-09T05:28:39.215Z,11.17
2019-05-09T05:31:09.248Z,11.07
2019-05-09T05:33:57.873Z,11.60
2019-05-09T05:36:28.315Z,10.20
2019-05-09T05:38:58.608Z,10.83
2019-05-09T05:41:28.607Z,9.53
2019-05-09T05:43:58.975Z,10.30
2019-05-09T05:46:50.723Z,10.90
2019-05-09T05:49:18.995Z,10.03
2019-05-09T05:51:52.084Z,10.33
2019-05-09T05:54:23.160Z,10.60
2019-05-09T05:56:53.439Z,10.47
2019-05-09T05:59:24.164Z,10.93
2019-05-09T06:01:54.623Z,10.10
2019-05-09T06:04:27.575Z,10.23
2019-05-09T06:06:58.876Z,9.77
2019-05-09T06:09:29.664Z,10.07
2019-05-09T06:12:00.891Z,11.00
2019-05-09T06:14:31.353Z,10.87
2019-05-09T06:17:01.675Z,10.20
2019-05-09T06:19:32.113Z,11.10
2019-05-09T06:22:07.928Z,11.30
2019-05-09T06:24:38.765Z,11.40
2019-05-09T06:27:10.729Z,11.50
2019-05-09T06:29:40.946Z,9.83
2019-05-09T06:32:11.072Z,11.00
2019-05-09T06:34:42.269Z,11.30
2019-05-09T06:37:12.656Z,11.87
2019-05-09T06:39:42.460Z,11.23
2019-05-09T06:42:13.799Z,11.00
2019-05-09T06:45:02.685Z,11.30
2019-05-09T06:47:35.024Z,12.23
2019-05-09T06:50:08.433Z,11.30
2019-05-09T06:52:38.339Z,10.27
2019-05-09T06:55:08.832Z,11.67
2019-05-09T06:57:42.670Z,10.67
2019-05-09T07:00:18.215Z,10.83
2019-05-09T07:02:57.562Z,10.90
2019-05-09T07:05:34.431Z,10.10
2019-05-09T07:08:14.180Z,11.23
2019-05-09T07:10:44.601Z,10.90
2019-05-09T07:13:14.311Z,11.40
2019-05-09T07:15:44.122Z,12.03
2019-05-09T07:18:14.037Z,10.90
2019-05-09T07:20:44.282Z,12.70
2019-05-09T07:23:14.314Z,12.63
2019-05-09T07:26:03.033Z,13.50
2019-05-09T07:28:32.876Z,14.10
2019-05-09T07:31:21.625Z,13.47
2019-05-09T07:34:10.251Z,13.77
2019-05-09T07:36:40.282Z,15.50
2019-05-09T07:39:10.311Z,13.93
2019-05-09T07:41:40.196Z,15.10
2019-05-09T07:44:10.023Z,14.77
2019-05-09T07:46:47.816Z,16.00
2019-05-09T07:49:17.879Z,14.07
2019-05-09T07:51:48.046Z,16.03
2019-05-09T07:54:24.757Z,15.20
2019-05-09T07:56:50.851Z,14.13
2019-05-09T07:59:21.081Z,14.53
2019-05-09T08:01:51.079Z,13.10
2019-05-09T08:04:20.699Z,13.73
2019-05-09T08:06:50.806Z,14.77
2019-05-09T08:09:20.826Z,15.00
2019-05-09T08:11:50.862Z,14.30
2019-05-09T08:14:20.446Z,13.93
2019-05-09T08:16:50.582Z,15.30
2019-05-09T08:19:20.402Z,16.57
2019-05-09T08:21:50.296Z,14.67
2019-05-09T08:24:20.516Z,16.20
2019-05-09T08:26:50.225Z,18.00
2019-05-09T08:29:20.111Z,16.27
2019-05-09T08:31:50.787Z,17.70
2019-05-09T08:34:20.477Z,15.13
2019-05-09T08:36:50.823Z,18.03
2019-05-09T08:39:20.895Z,17.17
2019-05-09T08:41:50.832Z,18.90
2019-05-09T08:44:20.745Z,20.93
2019-05-09T08:46:50.582Z,18.47
2019-05-09T08:49:23.561Z,21.87
2019-05-09T08:52:11.988Z,20.30
2019-05-09T08:54:51.532Z,21.53
2019-05-09T08:57:21.242Z,20.17
2019-05-09T08:59:51.023Z,20.70
2019-05-09T09:02:22.391Z,22.23
2019-05-09T09:04:52.235Z,20.40
2019-05-09T09:07:22.641Z,25.17
2019-05-09T09:09:52.582Z,22.50
2019-05-09T09:12:30.383Z,22.07
2019-05-09T09:26:09.247Z,25.67
2019-05-09T09:28:39.673Z,24.83
2019-05-09T09:31:10.419Z,25.30
2019-05-09T09:33:40.526Z,27.10
2019-05-09T09:36:11.062Z,23.83
2019-05-09T09:38:41.276Z,24.13
2019-05-09T09:41:12.644Z,26.50
2019-05-09T09:43:42.946Z,27.57
2019-05-09T09:46:14.842Z,22.53
2019-05-09T09:48:47.818Z,21.90
2019-05-09T09:51:18.677Z,22.80
2019-05-09T09:53:49.567Z,22.40
2019-05-09T09:56:22.404Z,25.80
2019-05-09T09:59:01.174Z,26.97
2019-05-09T10:01:33.562Z,23.33
2019-05-09T10:04:19.734Z,23.60
2019-05-09T10:06:41.472Z,25.17
2019-05-09T10:09:11.879Z,19.47
2019-05-09T10:11:42.109Z,24.07
2019-05-09T10:14:15.421Z,24.93
2019-05-09T10:17:04.077Z,24.87
2019-05-09T10:19:42.165Z,20.50
2019-05-09T10:22:22.374Z,21.70
2019-05-09T10:24:47.949Z,27.13
2019-05-09T10:27:18.661Z,24.67
2019-05-09T10:29:50.642Z,22.93
2019-05-09T10:32:21.260Z,25.30
2019-05-09T10:34:52.221Z,22.77
2019-05-09T10:37:22.541Z,23.70
2019-05-09T10:39:57.851Z,24.63
2019-05-09T10:42:41.196Z,22.03
2019-05-09T10:45:23.336Z,22.37
2019-05-09T10:47:53.876Z,22.10
2019-05-09T10:50:23.531Z,25.60
2019-05-09T10:52:54.182Z,24.27
2019-05-09T10:55:24.481Z,23.63
2019-05-09T10:57:54.813Z,27.90
2019-05-09T11:00:25.232Z,23.23
2019-05-09T11:02:55.350Z,21.17
2019-05-09T11:05:27.599Z,24.90
2019-05-09T11:07:58.794Z,24.73
2019-05-09T11:10:32.364Z,24.17
2019-05-09T11:13:00.542Z,23.83
2019-05-09T11:15:30.448Z,23.37
2019-05-09T11:18:00.261Z,24.07
2019-05-09T11:20:30.483Z,26.57
2019-05-09T11:23:00.901Z,26.73
2019-05-09T11:25:31.150Z,20.87
2019-05-09T11:28:11.274Z,21.40
2019-05-09T11:30:33.242Z,22.03
2019-05-09T11:33:02.914Z,24.20
2019-05-09T11:35:33.059Z,20.87
2019-05-09T11:38:03.665Z,20.03
2019-05-09T11:40:34.095Z,18.53
2019-05-09T11:43:04.115Z,22.87
2019-05-09T11:45:34.131Z,19.90
2019-05-09T11:48:04.252Z,21.87
2019-05-09T11:50:34.283Z,27.70
2019-05-09T11:53:05.404Z,21.73
2019-05-09T11:55:39.419Z,21.07
2019-05-09T11:58:08.386Z,22.33
2019-05-09T12:00:38.423Z,20.50
2019-05-09T12:03:09.185Z,21.47
2019-05-09T12:05:39.382Z,17.97
2019-05-09T12:08:09.402Z,18.60
2019-05-09T12:10:39.524Z,17.07
2019-05-09T12:13:09.226Z,20.20
2019-05-09T12:15:39.453Z,17.63
2019-05-09T12:18:11.643Z,17.60
2019-05-09T12:20:40.810Z,16.13
2019-05-09T12:23:10.826Z,17.97
2019-05-09T12:25:40.940Z,15.23
2019-05-09T12:28:12.522Z,13.97
2019-05-09T12:30:43.662Z,16.87
2019-05-09T12:33:14.282Z,15.27
2019-05-09T12:35:44.823Z,17.33
2019-05-09T12:38:15.020Z,15.53
2019-05-09T12:40:45.040Z,15.20
2019-05-09T12:43:15.156Z,13.27
2019-05-09T12:45:44.882Z,13.30
2019-05-09T12:48:15.961Z,15.90
2019-05-09T12:50:48.677Z,15.17
2019-05-09T12:53:18.927Z,15.27
2019-05-09T12:55:50.680Z,13.03
2019-05-09T12:58:39.219Z,12.23
2019-05-09T13:01:09.443Z,18.03
2019-05-09T13:03:41.001Z,14.73
2019-05-09T13:06:10.838Z,15.23
2019-05-09T13:08:41.243Z,11.97
2019-05-09T13:11:11.639Z,12.53
2019-05-09T13:13:42.908Z,13.80
2019-05-09T13:16:44.053Z,12.80
2019-05-09T13:19:06.620Z,10.97
2019-05-09T13:21:38.978Z,11.23
2019-05-09T13:24:09.102Z,9.93
2019-05-09T13:26:39.407Z,10.00
2019-05-09T13:29:09.446Z,11.07
2019-05-09T13:31:39.883Z,10.27
2019-05-09T13:34:10.801Z,9.80
2019-05-09T13:36:40.900Z,9.60
2019-05-09T13:39:11.901Z,10.37
2019-05-09T13:41:42.493Z,9.80
2019-05-09T13:44:17.800Z,9.73
2019-05-09T13:46:49.114Z,11.77
2019-05-09T13:49:20.628Z,9.33
2019-05-09T13:52:00.248Z,10.47
2019-05-09T13:54:28.323Z,9.40
2019-05-09T13:57:01.497Z,9.40
2019-05-09T13:59:32.278Z,9.67
2019-05-09T14:02:02.592Z,7.73
2019-05-09T14:04:34.663Z,16.10
2019-05-09T14:07:05.233Z,9.33
2019-05-09T14:09:38.685Z,9.97
2019-05-09T14:12:10.625Z,8.30
2019-05-09T14:14:40.851Z,9.37
2019-05-09T14:17:13.894Z,8.20
2019-05-09T14:19:46.838Z,9.77
2019-05-09T14:22:17.961Z,10.57
2019-05-09T14:24:50.545Z,8.40
2019-05-09T14:27:28.375Z,9.97
2019-05-09T14:29:59.399Z,8.93
2019-05-09T14:32:34.618Z,13.27
2019-05-09T14:35:03.094Z,10.07
2019-05-09T14:37:33.649Z,9.90
2019-05-09T14:40:05.026Z,9.67
2019-05-09T14:42:35.014Z,6.93
2019-05-09T14:45:08.283Z,9.80
2019-05-09T14:47:42.025Z,12.10
2019-05-09T14:50:14.256Z,8.87
2019-05-09T14:52:45.876Z,9.10
2019-05-09T14:55:18.181Z,9.07
2019-05-09T14:57:48.203Z,10.13
2019-05-09T15:00:22.615Z,8.57
2019-05-09T15:02:54.271Z,9.93
2019-05-09T15:05:27.909Z,7.37
2019-05-09T15:07:59.218Z,7.47
2019-05-09T15:10:32.618Z,7.80
2019-05-09T15:13:02.933Z,8.47
2019-05-09T15:15:39.000Z,7.50
2019-05-09T15:18:10.244Z,7.93
2019-05-09T15:20:41.487Z,8.77
2019-05-09T15:23:12.679Z,7.40
2019-05-09T15:25:49.223Z,7.00
2019-05-09T15:28:20.443Z,7.60
2019-05-09T15:30:50.681Z,7.90
2019-05-09T15:33:24.590Z,8.30
2019-05-09T15:35:55.692Z,8.80
2019-05-09T15:38:29.750Z,9.20
2019-05-09T15:41:00.894Z,7.83
2019-05-09T15:43:31.502Z,9.00
2019-05-09T15:46:20.435Z,9.77
2019-05-09T15:48:52.471Z,8.23
2019-05-09T15:51:27.832Z,8.70
2019-05-09T15:53:57.878Z,7.53
2019-05-09T15:56:30.687Z,7.60
2019-05-09T15:59:01.712Z,8.90
2019-05-09T16:01:32.170Z,9.40
2019-05-09T16:04:02.880Z,8.70
2019-05-09T16:06:34.316Z,8.57
2019-05-09T16:09:14.683Z,8.77
2019-05-09T16:11:50.762Z,11.93
2019-05-09T16:14:21.694Z,11.27
2019-05-09T16:16:52.523Z,11.97
2019-05-09T16:19:23.169Z,11.77
2019-05-09T16:21:57.398Z,12.90
2019-05-09T16:24:29.142Z,14.43
2019-05-09T16:27:00.613Z,12.40
2019-05-09T16:29:32.544Z,13.93
2019-05-09T16:32:02.877Z,13.23
2019-05-09T16:34:33.073Z,13.63
2019-05-09T16:37:08.878Z,13.00
2019-05-09T16:39:43.066Z,14.30
2019-05-09T16:42:19.514Z,15.07
2019-05-09T16:44:50.570Z,15.83
2019-05-09T16:47:22.784Z,14.80
2019-05-09T16:49:53.466Z,13.30
2019-05-09T16:52:24.191Z,15.13
2019-05-09T16:55:08.242Z,14.47
2019-05-09T16:57:39.079Z,14.50
2019-05-09T17:00:13.285Z,14.87
2019-05-09T17:02:48.160Z,20.47
2019-05-09T17:05:22.792Z,18.67
2019-05-09T17:07:55.007Z,20.07
2019-05-09T17:10:28.719Z,22.40
2019-05-09T17:12:59.232Z,19.10
2019-05-09T17:15:32.632Z,16.87
2019-05-09T17:18:07.452Z,18.07
2019-05-09T17:20:44.875Z,17.83
2019-05-09T17:23:21.516Z,17.37
2019-05-09T17:25:58.296Z,16.13
2019-05-09T17:28:30.056Z,18.53
2019-05-09T17:31:01.602Z,24.43
2019-05-09T17:33:32.042Z,23.47
2019-05-09T17:36:02.255Z,19.17
2019-05-09T17:38:34.455Z,17.87
2019-05-09T17:41:08.119Z,18.30
2019-05-09T17:43:42.760Z,17.73
2019-05-09T17:46:24.119Z,14.93
2019-05-09T17:48:54.548Z,17.57
2019-05-09T17:51:34.027Z,14.57
2019-05-09T17:54:08.282Z,13.87
2019-05-09T17:56:39.570Z,14.20
2019-05-09T17:59:09.913Z,12.67
2019-05-09T18:01:44.314Z,13.87
2019-05-09T18:04:14.205Z,13.00
2019-05-09T18:06:45.240Z,14.27
2019-05-09T18:09:18.789Z,14.63
2019-05-09T18:11:51.869Z,13.47
2019-05-09T18:14:30.560Z,13.67
2019-05-09T18:17:00.184Z,15.43
2019-05-09T18:19:32.040Z,16.20
2019-05-09T18:22:02.264Z,16.13
2019-05-09T18:24:37.549Z,15.30
2019-05-09T18:27:07.711Z,13.67
2019-05-09T18:29:39.456Z,16.53
2019-05-09T18:32:28.224Z,19.13
2019-05-09T18:35:16.266Z,17.30
2019-05-09T18:37:48.142Z,15.30
2019-05-09T18:40:20.090Z,15.23
2019-05-09T18:42:54.608Z,16.10
2019-05-09T18:45:30.569Z,14.73
2019-05-09T18:48:08.413Z,15.23
2019-05-09T18:50:42.591Z,15.83
2019-05-09T18:53:16.594Z,15.17
2019-05-09T18:55:48.043Z,18.97
2019-05-09T18:58:18.961Z,18.20
2019-05-09T19:00:53.701Z,15.77
2019-05-09T19:03:26.679Z,21.43
2019-05-09T19:05:57.649Z,23.83
2019-05-09T19:08:30.834Z,28.03
2019-05-09T19:11:03.291Z,30.10
2019-05-09T19:13:33.724Z,28.43
2019-05-09T19:16:23.434Z,31.10
2019-05-09T19:19:15.651Z,26.10
2019-05-09T19:22:04.618Z,25.77
2019-05-09T19:24:33.063Z,23.10
2019-05-09T19:27:03.293Z,27.17
2019-05-09T19:29:42.734Z,22.30
2019-05-09T19:32:17.473Z,23.23
2019-05-09T19:34:49.222Z,22.50
2019-05-09T19:37:23.750Z,26.90
2019-05-09T19:40:02.375Z,25.37
2019-05-09T19:42:35.248Z,27.03
2019-05-09T19:45:05.562Z,25.60
2019-05-09T19:47:36.094Z,25.30
2019-05-09T19:50:13.241Z,27.90
2019-05-09T19:52:50.248Z,29.27
2019-05-09T19:55:25.178Z,31.03
2019-05-09T19:57:59.302Z,27.53
2019-05-09T20:00:39.545Z,27.77
2019-05-09T20:03:10.592Z,31.60
2019-05-09T20:05:40.933Z,28.03
2019-05-09T20:08:11.340Z,27.53
2019-05-09T20:11:00.208Z,27.33
2019-05-09T20:13:35.854Z,27.37
2019-05-09T20:16:06.189Z,29.70
2019-05-09T20:18:37.114Z,30.57
2019-05-09T20:21:07.331Z,30.63
2019-05-09T20:23:37.559Z,27.53
2019-05-09T20:26:13.194Z,25.80
2019-05-09T20:28:45.807Z,25.43
2019-05-09T20:31:15.809Z,26.57
2019-05-09T20:33:46.931Z,27.43
2019-05-09T20:36:17.178Z,28.47
2019-05-09T20:38:47.900Z,26.00
2019-05-09T20:41:18.647Z,26.50
2019-05-09T20:44:02.471Z,27.17
2019-05-09T20:46:32.701Z,23.83
2019-05-09T20:49:03.442Z,29.80
2019-05-09T20:51:33.660Z,23.60
2019-05-09T20:54:19.746Z,22.07
2019-05-09T20:56:36.671Z,25.17
2019-05-09T20:59:07.280Z,23.17
2019-05-09T21:01:38.010Z,26.07
2019-05-09T21:04:09.388Z,25.00
2019-05-09T21:06:41.031Z,23.80
2019-05-09T21:09:12.560Z,22.73
2019-05-09T21:11:43.284Z,23.30
2019-05-09T21:14:13.641Z,23.03
2019-05-09T21:16:44.259Z,25.13
2019-05-09T21:19:14.884Z,25.57
2019-05-09T21:21:45.524Z,26.90
2019-05-09T21:24:15.728Z,23.07
2019-05-09T21:26:46.178Z,28.00
2019-05-09T21:29:16.610Z,31.03
2019-05-09T21:31:47.037Z,32.33
2019-05-09T21:34:17.132Z,42.37
2019-05-09T21:36:47.454Z,49.80
2019-05-09T21:39:17.798Z,56.40
2019-05-09T21:41:47.815Z,43.43
2019-05-09T21:44:18.019Z,38.23
2019-05-09T21:46:48.462Z,34.93
2019-05-09T21:49:19.087Z,34.10
2019-05-09T21:51:49.101Z,30.17
2019-05-09T21:54:19.620Z,26.10
2019-05-09T21:56:49.651Z,26.67
2019-05-09T21:59:19.361Z,27.97
2019-05-09T22:01:49.461Z,23.60
2019-05-09T22:04:20.010Z,28.17
2019-05-09T22:06:50.031Z,32.03
2019-05-09T22:09:20.850Z,29.70
2019-05-09T22:11:50.901Z,35.93
2019-05-09T22:14:21.077Z,33.67
2019-05-09T22:16:51.123Z,40.63
2019-05-09T22:19:21.547Z,43.83
2019-05-09T22:21:51.564Z,41.73
2019-05-09T22:24:21.863Z,39.13
2019-05-09T22:26:52.100Z,38.07
2019-05-09T22:29:22.517Z,37.73
2019-05-09T22:31:52.651Z,37.80
2019-05-09T22:34:22.876Z,43.23
2019-05-09T22:36:52.883Z,34.30
2019-05-09T22:39:22.574Z,39.43
2019-05-09T22:41:52.608Z,36.97
2019-05-09T22:44:22.503Z,36.10
2019-05-09T22:46:52.878Z,41.47
2019-05-09T22:49:26.340Z,50.03
2019-05-09T22:51:56.661Z,42.83
2019-05-09T22:54:30.059Z,40.30
2019-05-09T22:57:00.571Z,45.90
2019-05-09T22:59:31.305Z,48.00
2019-05-09T23:02:06.685Z,52.63
2019-05-09T23:04:34.209Z,54.17
2019-05-09T23:07:04.023Z,55.60
2019-05-09T23:09:34.041Z,57.73
2019-05-09T23:12:04.254Z,53.27
2019-05-09T23:14:34.490Z,48.17
2019-05-09T23:17:04.710Z,42.90
2019-05-09T23:19:35.130Z,36.30
2019-05-09T23:22:05.445Z,35.33
2019-05-09T23:24:36.192Z,33.37
2019-05-09T23:27:07.234Z,28.83
2019-05-09T23:29:37.660Z,27.23
2019-05-09T23:32:14.217Z,25.93
2019-05-09T23:34:44.438Z,26.57
2019-05-09T23:37:14.578Z,27.57
2019-05-09T23:39:46.929Z,24.60
2019-05-09T23:42:16.877Z,31.47
2019-05-09T23:44:46.452Z,27.43
2019-05-09T23:47:16.260Z,24.87
2019-05-09T23:49:46.338Z,27.43
2019-05-09T23:52:16.512Z,25.83
2019-05-09T23:55:05.178Z,27.10
2019-05-09T23:57:54.215Z,28.10
